sensor_id;sensor_type;location;lat;lon;timestamp;P1;durP1;ratioP1;P2;durP2;ratioP2
38226;SDS011;24026;49.446;8.576;2024-02-15T00:02:10;129.43;;;116.15;;
38226;SDS011;24026;49.446;8.576;2024-02-15T00:04:30;128.82;;;115.65;;
38226;SDS011;24026;49.446;8.576;2024-02-15T00:06:52;128.13;;;114.97;;
38226;SDS011;24026;49.446;8.576;2024-02-15T00:09:12;128.15;;;115.18;;
38226;SDS011;24026;49.446;8.576;2024-02-15T00:11:32;127.43;;;114.30;;
38226;SDS011;24026;49.446;8.576;2024-02-15T00:13:53;127.03;;;114.15;;
38226;SDS011;24026;49.446;8.576;2024-02-15T00:16:14;129.07;;;115.88;;
38226;SDS011;24026;49.446;8.576;2024-02-15T00:18:37;129.30;;;116.10;;
38226;SDS011;24026;49.446;8.576;2024-02-15T00:20:57;129.35;;;116.25;;
38226;SDS011;24026;49.446;8.576;2024-02-15T00:23:20;129.77;;;116.60;;
38226;SDS011;24026;49.446;8.576;2024-02-15T00:25:40;130.00;;;116.85;;
38226;SDS011;24026;49.446;8.576;2024-02-15T00:28:04;129.63;;;116.53;;
38226;SDS011;24026;49.446;8.576;2024-02-15T00:30:25;129.38;;;116.28;;
38226;SDS011;24026;49.446;8.576;2024-02-15T00:32:47;129.10;;;115.95;;
38226;SDS011;24026;49.446;8.576;2024-02-15T00:35:07;128.10;;;115.07;;
38226;SDS011;24026;49.446;8.576;2024-02-15T00:37:29;128.30;;;115.30;;
38226;SDS011;24026;49.446;8.576;2024-02-15T00:39:49;127.63;;;114.68;;
38226;SDS011;24026;49.446;8.576;2024-02-15T00:42:10;128.75;;;115.47;;
38226;SDS011;24026;49.446;8.576;2024-02-15T00:44:30;127.53;;;114.53;;
38226;SDS011;24026;49.446;8.576;2024-02-15T00:46:50;128.88;;;115.68;;
38226;SDS011;24026;49.446;8.576;2024-02-15T00:49:11;128.98;;;115.78;;
38226;SDS011;24026;49.446;8.576;2024-02-15T00:51:34;128.57;;;115.45;;
38226;SDS011;24026;49.446;8.576;2024-02-15T00:53:55;129.00;;;115.95;;
38226;SDS011;24026;49.446;8.576;2024-02-15T00:56:16;130.75;;;117.60;;
38226;SDS011;24026;49.446;8.576;2024-02-15T01:01:53;127.63;;;114.55;;
38226;SDS011;24026;49.446;8.576;2024-02-15T01:04:14;127.50;;;114.50;;
38226;SDS011;24026;49.446;8.576;2024-02-15T01:06:35;128.70;;;115.65;;
38226;SDS011;24026;49.446;8.576;2024-02-15T01:08:55;129.30;;;116.20;;
38226;SDS011;24026;49.446;8.576;2024-02-15T01:11:17;128.32;;;115.35;;
38226;SDS011;24026;49.446;8.576;2024-02-15T01:13:37;127.30;;;114.40;;
38226;SDS011;24026;49.446;8.576;2024-02-15T01:15:58;128.55;;;115.38;;
38226;SDS011;24026;49.446;8.576;2024-02-15T01:18:18;128.20;;;115.13;;
38226;SDS011;24026;49.446;8.576;2024-02-15T01:20:38;127.47;;;114.47;;
38226;SDS011;24026;49.446;8.576;2024-02-15T01:22:59;126.95;;;114.03;;
38226;SDS011;24026;49.446;8.576;2024-02-15T01:25:19;127.63;;;114.43;;
38226;SDS011;24026;49.446;8.576;2024-02-15T01:27:40;127.90;;;114.80;;
38226;SDS011;24026;49.446;8.576;2024-02-15T01:30:00;126.75;;;113.93;;
38226;SDS011;24026;49.446;8.576;2024-02-15T01:32:20;129.05;;;115.82;;
38226;SDS011;24026;49.446;8.576;2024-02-15T01:34:41;127.82;;;114.82;;
38226;SDS011;24026;49.446;8.576;2024-02-15T01:37:02;127.75;;;114.78;;
38226;SDS011;24026;49.446;8.576;2024-02-15T01:39:23;127.40;;;114.40;;
38226;SDS011;24026;49.446;8.576;2024-02-15T01:41:47;128.07;;;115.10;;
38226;SDS011;24026;49.446;8.576;2024-02-15T01:44:08;126.68;;;113.80;;
38226;SDS011;24026;49.446;8.576;2024-02-15T01:46:30;127.72;;;114.75;;
38226;SDS011;24026;49.446;8.576;2024-02-15T01:48:51;127.72;;;114.82;;
38226;SDS011;24026;49.446;8.576;2024-02-15T01:51:12;128.45;;;115.38;;
38226;SDS011;24026;49.446;8.576;2024-02-15T01:53:34;127.82;;;114.90;;
38226;SDS011;24026;49.446;8.576;2024-02-15T01:55:54;127.38;;;114.43;;
38226;SDS011;24026;49.446;8.576;2024-02-15T01:58:17;127.85;;;114.78;;
38226;SDS011;24026;49.446;8.576;2024-02-15T02:00:38;126.07;;;113.15;;
38226;SDS011;24026;49.446;8.576;2024-02-15T02:02:59;126.78;;;113.70;;
38226;SDS011;24026;49.446;8.576;2024-02-15T02:05:22;126.15;;;113.30;;
38226;SDS011;24026;49.446;8.576;2024-02-15T02:07:43;126.18;;;113.35;;
38226;SDS011;24026;49.446;8.576;2024-02-15T02:10:03;127.65;;;114.72;;
38226;SDS011;24026;49.446;8.576;2024-02-15T02:12:24;127.10;;;114.10;;
38226;SDS011;24026;49.446;8.576;2024-02-15T02:14:47;127.03;;;114.07;;
38226;SDS011;24026;49.446;8.576;2024-02-15T02:17:14;127.60;;;114.65;;
38226;SDS011;24026;49.446;8.576;2024-02-15T02:19:34;125.93;;;113.10;;
38226;SDS011;24026;49.446;8.576;2024-02-15T02:21:57;127.03;;;114.07;;
38226;SDS011;24026;49.446;8.576;2024-02-15T02:24:22;129.05;;;115.95;;
38226;SDS011;24026;49.446;8.576;2024-02-15T02:26:43;128.20;;;115.05;;
38226;SDS011;24026;49.446;8.576;2024-02-15T02:29:03;126.70;;;113.70;;
38226;SDS011;24026;49.446;8.576;2024-02-15T02:31:27;126.82;;;113.75;;
38226;SDS011;24026;49.446;8.576;2024-02-15T02:33:50;126.75;;;113.85;;
38226;SDS011;24026;49.446;8.576;2024-02-15T02:36:13;127.40;;;114.43;;
38226;SDS011;24026;49.446;8.576;2024-02-15T02:38:33;127.97;;;115.00;;
38226;SDS011;24026;49.446;8.576;2024-02-15T02:40:53;126.47;;;113.53;;
38226;SDS011;24026;49.446;8.576;2024-02-15T02:43:14;128.35;;;115.35;;
38226;SDS011;24026;49.446;8.576;2024-02-15T02:45:34;128.32;;;115.32;;
38226;SDS011;24026;49.446;8.576;2024-02-15T02:47:55;126.05;;;113.25;;
38226;SDS011;24026;49.446;8.576;2024-02-15T02:50:15;127.30;;;114.40;;
38226;SDS011;24026;49.446;8.576;2024-02-15T02:52:35;127.28;;;114.35;;
38226;SDS011;24026;49.446;8.576;2024-02-15T02:54:59;127.13;;;114.15;;
38226;SDS011;24026;49.446;8.576;2024-02-15T02:57:19;126.80;;;113.85;;
38226;SDS011;24026;49.446;8.576;2024-02-15T02:59:39;128.93;;;115.93;;
38226;SDS011;24026;49.446;8.576;2024-02-15T03:02:00;127.35;;;114.40;;
38226;SDS011;24026;49.446;8.576;2024-02-15T03:04:20;126.05;;;113.25;;
38226;SDS011;24026;49.446;8.576;2024-02-15T03:06:40;126.03;;;113.13;;
38226;SDS011;24026;49.446;8.576;2024-02-15T03:12:18;124.78;;;111.97;;
38226;SDS011;24026;49.446;8.576;2024-02-15T03:14:39;126.70;;;113.80;;
38226;SDS011;24026;49.446;8.576;2024-02-15T03:17:01;125.97;;;112.97;;
38226;SDS011;24026;49.446;8.576;2024-02-15T03:19:23;125.07;;;112.25;;
38226;SDS011;24026;49.446;8.576;2024-02-15T03:21:43;126.30;;;113.47;;
38226;SDS011;24026;49.446;8.576;2024-02-15T03:24:06;127.05;;;114.18;;
38226;SDS011;24026;49.446;8.576;2024-02-15T03:26:30;128.15;;;115.13;;
38226;SDS011;24026;49.446;8.576;2024-02-15T03:28:56;127.20;;;114.30;;
38226;SDS011;24026;49.446;8.576;2024-02-15T03:31:17;128.98;;;115.78;;
38226;SDS011;24026;49.446;8.576;2024-02-15T03:33:38;126.63;;;113.65;;
38226;SDS011;24026;49.446;8.576;2024-02-15T03:35:59;128.02;;;114.93;;
38226;SDS011;24026;49.446;8.576;2024-02-15T03:38:20;127.13;;;114.13;;
38226;SDS011;24026;49.446;8.576;2024-02-15T03:40:41;126.97;;;114.10;;
38226;SDS011;24026;49.446;8.576;2024-02-15T03:43:01;126.07;;;113.25;;
38226;SDS011;24026;49.446;8.576;2024-02-15T03:45:26;127.25;;;114.32;;
38226;SDS011;24026;49.446;8.576;2024-02-15T03:47:47;127.43;;;114.35;;
38226;SDS011;24026;49.446;8.576;2024-02-15T03:50:07;126.78;;;113.82;;
38226;SDS011;24026;49.446;8.576;2024-02-15T03:52:32;127.25;;;114.10;;
38226;SDS011;24026;49.446;8.576;2024-02-15T03:54:52;125.65;;;112.85;;
38226;SDS011;24026;49.446;8.576;2024-02-15T03:57:13;125.65;;;112.80;;
38226;SDS011;24026;49.446;8.576;2024-02-15T03:59:36;127.10;;;114.03;;
38226;SDS011;24026;49.446;8.576;2024-02-15T04:01:57;125.68;;;112.85;;
38226;SDS011;24026;49.446;8.576;2024-02-15T04:04:18;126.03;;;113.18;;
38226;SDS011;24026;49.446;8.576;2024-02-15T04:06:41;126.40;;;113.55;;
38226;SDS011;24026;49.446;8.576;2024-02-15T04:09:02;126.38;;;113.47;;
38226;SDS011;24026;49.446;8.576;2024-02-15T04:11:23;127.25;;;114.25;;
38226;SDS011;24026;49.446;8.576;2024-02-15T04:13:43;126.78;;;113.80;;
38226;SDS011;24026;49.446;8.576;2024-02-15T04:16:03;127.70;;;114.65;;
38226;SDS011;24026;49.446;8.576;2024-02-15T04:18:24;126.35;;;113.57;;
38226;SDS011;24026;49.446;8.576;2024-02-15T04:20:45;126.80;;;113.97;;
38226;SDS011;24026;49.446;8.576;2024-02-15T04:23:06;126.65;;;113.75;;
38226;SDS011;24026;49.446;8.576;2024-02-15T04:25:26;126.95;;;114.05;;
38226;SDS011;24026;49.446;8.576;2024-02-15T04:27:47;126.88;;;113.95;;
38226;SDS011;24026;49.446;8.576;2024-02-15T04:30:09;126.13;;;113.30;;
38226;SDS011;24026;49.446;8.576;2024-02-15T04:32:30;125.78;;;113.00;;
38226;SDS011;24026;49.446;8.576;2024-02-15T04:34:53;124.80;;;112.00;;
38226;SDS011;24026;49.446;8.576;2024-02-15T04:37:13;125.93;;;112.97;;
38226;SDS011;24026;49.446;8.576;2024-02-15T04:39:34;126.93;;;114.03;;
38226;SDS011;24026;49.446;8.576;2024-02-15T04:41:56;126.32;;;113.32;;
38226;SDS011;24026;49.446;8.576;2024-02-15T04:44:16;126.30;;;113.50;;
38226;SDS011;24026;49.446;8.576;2024-02-15T04:46:40;125.65;;;112.85;;
38226;SDS011;24026;49.446;8.576;2024-02-15T04:49:01;128.15;;;115.15;;
38226;SDS011;24026;49.446;8.576;2024-02-15T04:51:23;126.35;;;113.18;;
38226;SDS011;24026;49.446;8.576;2024-02-15T04:53:44;127.13;;;114.13;;
38226;SDS011;24026;49.446;8.576;2024-02-15T04:56:06;125.55;;;112.63;;
38226;SDS011;24026;49.446;8.576;2024-02-15T04:58:33;125.68;;;112.60;;
38226;SDS011;24026;49.446;8.576;2024-02-15T05:00:56;125.38;;;112.57;;
38226;SDS011;24026;49.446;8.576;2024-02-15T05:03:19;126.10;;;113.00;;
38226;SDS011;24026;49.446;8.576;2024-02-15T05:05:39;124.82;;;112.10;;
38226;SDS011;24026;49.446;8.576;2024-02-15T05:08:00;125.60;;;112.78;;
38226;SDS011;24026;49.446;8.576;2024-02-15T05:10:21;125.57;;;112.68;;
38226;SDS011;24026;49.446;8.576;2024-02-15T05:12:41;127.35;;;114.50;;
38226;SDS011;24026;49.446;8.576;2024-02-15T05:15:02;126.72;;;113.82;;
38226;SDS011;24026;49.446;8.576;2024-02-15T05:17:30;128.30;;;115.40;;
38226;SDS011;24026;49.446;8.576;2024-02-15T05:19:51;127.05;;;114.22;;
38226;SDS011;24026;49.446;8.576;2024-02-15T05:22:11;128.32;;;115.43;;
38226;SDS011;24026;49.446;8.576;2024-02-15T05:24:33;129.13;;;115.95;;
38226;SDS011;24026;49.446;8.576;2024-02-15T05:26:54;128.48;;;115.50;;
38226;SDS011;24026;49.446;8.576;2024-02-15T05:29:15;129.65;;;116.65;;
38226;SDS011;24026;49.446;8.576;2024-02-15T05:31:35;128.60;;;115.70;;
38226;SDS011;24026;49.446;8.576;2024-02-15T05:33:58;127.47;;;114.65;;
38226;SDS011;24026;49.446;8.576;2024-02-15T05:36:19;130.10;;;117.10;;
38226;SDS011;24026;49.446;8.576;2024-02-15T05:38:40;130.73;;;117.63;;
38226;SDS011;24026;49.446;8.576;2024-02-15T05:41:01;128.35;;;115.47;;
38226;SDS011;24026;49.446;8.576;2024-02-15T05:43:23;130.55;;;117.60;;
38226;SDS011;24026;49.446;8.576;2024-02-15T05:45:45;132.32;;;119.20;;
38226;SDS011;24026;49.446;8.576;2024-02-15T05:48:05;129.43;;;116.63;;
38226;SDS011;24026;49.446;8.576;2024-02-15T05:50:27;130.35;;;117.43;;
38226;SDS011;24026;49.446;8.576;2024-02-15T05:52:49;131.85;;;118.85;;
38226;SDS011;24026;49.446;8.576;2024-02-15T05:55:15;130.23;;;117.32;;
38226;SDS011;24026;49.446;8.576;2024-02-15T05:57:37;131.13;;;118.28;;
38226;SDS011;24026;49.446;8.576;2024-02-15T05:59:57;131.93;;;119.03;;
38226;SDS011;24026;49.446;8.576;2024-02-15T06:02:21;132.20;;;119.13;;
38226;SDS011;24026;49.446;8.576;2024-02-15T06:04:42;132.77;;;119.78;;
38226;SDS011;24026;49.446;8.576;2024-02-15T06:07:02;132.73;;;119.63;;
38226;SDS011;24026;49.446;8.576;2024-02-15T06:09:23;133.63;;;120.72;;
38226;SDS011;24026;49.446;8.576;2024-02-15T06:11:46;132.60;;;119.70;;
38226;SDS011;24026;49.446;8.576;2024-02-15T06:14:07;134.43;;;120.82;;
38226;SDS011;24026;49.446;8.576;2024-02-15T06:16:27;132.68;;;119.70;;
38226;SDS011;24026;49.446;8.576;2024-02-15T06:18:47;132.70;;;119.70;;
38226;SDS011;24026;49.446;8.576;2024-02-15T06:21:08;132.50;;;119.57;;
38226;SDS011;24026;49.446;8.576;2024-02-15T06:23:29;133.30;;;120.32;;
38226;SDS011;24026;49.446;8.576;2024-02-15T06:25:50;133.52;;;120.63;;
38226;SDS011;24026;49.446;8.576;2024-02-15T06:28:16;135.98;;;122.88;;
38226;SDS011;24026;49.446;8.576;2024-02-15T06:30:59;134.38;;;121.20;;
38226;SDS011;24026;49.446;8.576;2024-02-15T06:33:38;138.00;;;124.38;;
38226;SDS011;24026;49.446;8.576;2024-02-15T06:36:17;133.93;;;120.72;;
38226;SDS011;24026;49.446;8.576;2024-02-15T06:38:56;134.25;;;120.95;;
38226;SDS011;24026;49.446;8.576;2024-02-15T06:41:35;134.77;;;121.57;;
38226;SDS011;24026;49.446;8.576;2024-02-15T06:43:55;133.90;;;120.70;;
38226;SDS011;24026;49.446;8.576;2024-02-15T06:46:18;141.10;;;127.30;;
38226;SDS011;24026;49.446;8.576;2024-02-15T06:48:41;140.52;;;126.82;;
38226;SDS011;24026;49.446;8.576;2024-02-15T06:51:04;141.88;;;127.97;;
38226;SDS011;24026;49.446;8.576;2024-02-15T06:53:26;140.48;;;126.55;;
38226;SDS011;24026;49.446;8.576;2024-02-15T06:55:48;140.25;;;126.38;;
38226;SDS011;24026;49.446;8.576;2024-02-15T06:58:09;142.15;;;128.07;;
38226;SDS011;24026;49.446;8.576;2024-02-15T07:00:29;141.52;;;127.57;;
38226;SDS011;24026;49.446;8.576;2024-02-15T07:02:52;145.80;;;130.07;;
38226;SDS011;24026;49.446;8.576;2024-02-15T07:05:15;144.82;;;130.43;;
38226;SDS011;24026;49.446;8.576;2024-02-15T07:07:39;145.68;;;131.05;;
38226;SDS011;24026;49.446;8.576;2024-02-15T07:10:00;146.60;;;132.00;;
38226;SDS011;24026;49.446;8.576;2024-02-15T07:12:23;147.02;;;131.98;;
38226;SDS011;24026;49.446;8.576;2024-02-15T07:14:43;148.07;;;133.65;;
38226;SDS011;24026;49.446;8.576;2024-02-15T07:17:03;147.60;;;132.50;;
38226;SDS011;24026;49.446;8.576;2024-02-15T07:19:25;150.98;;;135.68;;
38226;SDS011;24026;49.446;8.576;2024-02-15T07:21:47;150.27;;;134.45;;
38226;SDS011;24026;49.446;8.576;2024-02-15T07:24:07;149.40;;;133.82;;
38226;SDS011;24026;49.446;8.576;2024-02-15T07:26:29;151.65;;;136.13;;
38226;SDS011;24026;49.446;8.576;2024-02-15T07:28:53;202.63;;;170.77;;
38226;SDS011;24026;49.446;8.576;2024-02-15T07:31:15;193.45;;;173.13;;
38226;SDS011;24026;49.446;8.576;2024-02-15T07:33:36;261.92;;;236.30;;
38226;SDS011;24026;49.446;8.576;2024-02-15T07:35:57;205.68;;;185.63;;
38226;SDS011;24026;49.446;8.576;2024-02-15T07:38:17;180.75;;;162.38;;
38226;SDS011;24026;49.446;8.576;2024-02-15T07:40:39;196.02;;;175.48;;
38226;SDS011;24026;49.446;8.576;2024-02-15T07:43:01;210.20;;;187.93;;
38226;SDS011;24026;49.446;8.576;2024-02-15T07:45:23;269.27;;;241.98;;
38226;SDS011;24026;49.446;8.576;2024-02-15T07:47:43;230.55;;;206.60;;
38226;SDS011;24026;49.446;8.576;2024-02-15T07:50:05;199.63;;;178.45;;
38226;SDS011;24026;49.446;8.576;2024-02-15T07:52:30;182.15;;;162.93;;
38226;SDS011;24026;49.446;8.576;2024-02-15T07:54:51;184.50;;;164.48;;
38226;SDS011;24026;49.446;8.576;2024-02-15T07:57:14;180.90;;;162.43;;
38226;SDS011;24026;49.446;8.576;2024-02-15T07:59:34;179.68;;;160.70;;
38226;SDS011;24026;49.446;8.576;2024-02-15T08:01:57;172.63;;;154.60;;
38226;SDS011;24026;49.446;8.576;2024-02-15T08:04:18;166.48;;;148.65;;
38226;SDS011;24026;49.446;8.576;2024-02-15T08:06:38;182.18;;;144.20;;
38226;SDS011;24026;49.446;8.576;2024-02-15T08:08:59;185.88;;;142.82;;
38226;SDS011;24026;49.446;8.576;2024-02-15T08:11:19;171.18;;;144.05;;
38226;SDS011;24026;49.446;8.576;2024-02-15T08:13:46;194.52;;;139.57;;
38226;SDS011;24026;49.446;8.576;2024-02-15T08:16:10;171.40;;;134.55;;
38226;SDS011;24026;49.446;8.576;2024-02-15T08:18:31;172.40;;;137.50;;
38226;SDS011;24026;49.446;8.576;2024-02-15T08:20:52;178.82;;;136.25;;
38226;SDS011;24026;49.446;8.576;2024-02-15T08:23:13;162.65;;;133.30;;
38226;SDS011;24026;49.446;8.576;2024-02-15T08:25:35;158.82;;;134.57;;
38226;SDS011;24026;49.446;8.576;2024-02-15T08:27:58;161.68;;;133.50;;
38226;SDS011;24026;49.446;8.576;2024-02-15T08:30:20;166.00;;;133.93;;
38226;SDS011;24026;49.446;8.576;2024-02-15T08:32:41;171.70;;;139.60;;
38226;SDS011;24026;49.446;8.576;2024-02-15T08:35:02;169.95;;;139.15;;
38226;SDS011;24026;49.446;8.576;2024-02-15T08:37:24;178.98;;;140.10;;
38226;SDS011;24026;49.446;8.576;2024-02-15T08:39:46;177.80;;;146.60;;
38226;SDS011;24026;49.446;8.576;2024-02-15T08:42:06;169.57;;;144.30;;
38226;SDS011;24026;49.446;8.576;2024-02-15T08:44:27;181.40;;;138.90;;
38226;SDS011;24026;49.446;8.576;2024-02-15T08:46:48;177.50;;;144.10;;
38226;SDS011;24026;49.446;8.576;2024-02-15T08:49:10;176.40;;;139.35;;
38226;SDS011;24026;49.446;8.576;2024-02-15T08:51:33;169.20;;;139.48;;
38226;SDS011;24026;49.446;8.576;2024-02-15T08:53:53;185.27;;;146.20;;
38226;SDS011;24026;49.446;8.576;2024-02-15T08:56:14;175.80;;;143.90;;
38226;SDS011;24026;49.446;8.576;2024-02-15T08:58:34;174.52;;;138.68;;
38226;SDS011;24026;49.446;8.576;2024-02-15T09:00:55;163.13;;;138.05;;
38226;SDS011;24026;49.446;8.576;2024-02-15T09:03:17;161.95;;;140.45;;
38226;SDS011;24026;49.446;8.576;2024-02-15T09:05:41;171.40;;;141.05;;
38226;SDS011;24026;49.446;8.576;2024-02-15T09:08:02;168.93;;;138.45;;
38226;SDS011;24026;49.446;8.576;2024-02-15T09:10:26;178.93;;;138.55;;
38226;SDS011;24026;49.446;8.576;2024-02-15T09:12:47;160.88;;;138.63;;
38226;SDS011;24026;49.446;8.576;2024-02-15T09:15:10;163.75;;;141.25;;
38226;SDS011;24026;49.446;8.576;2024-02-15T09:17:30;165.23;;;138.10;;
38226;SDS011;24026;49.446;8.576;2024-02-15T09:19:52;159.05;;;139.18;;
38226;SDS011;24026;49.446;8.576;2024-02-15T09:22:14;164.95;;;141.45;;
38226;SDS011;24026;49.446;8.576;2024-02-15T09:24:35;169.90;;;140.55;;
38226;SDS011;24026;49.446;8.576;2024-02-15T09:26:57;165.10;;;142.70;;
38226;SDS011;24026;49.446;8.576;2024-02-15T09:29:18;168.63;;;141.82;;
38226;SDS011;24026;49.446;8.576;2024-02-15T09:31:39;161.52;;;137.80;;
38226;SDS011;24026;49.446;8.576;2024-02-15T09:34:02;163.38;;;145.38;;
38226;SDS011;24026;49.446;8.576;2024-02-15T09:36:26;175.23;;;142.45;;
38226;SDS011;24026;49.446;8.576;2024-02-15T09:38:48;172.68;;;144.07;;
38226;SDS011;24026;49.446;8.576;2024-02-15T09:41:09;174.98;;;143.55;;
38226;SDS011;24026;49.446;8.576;2024-02-15T09:43:30;161.63;;;142.18;;
38226;SDS011;24026;49.446;8.576;2024-02-15T09:45:50;169.25;;;145.27;;
38226;SDS011;24026;49.446;8.576;2024-02-15T09:48:10;171.57;;;144.88;;
38226;SDS011;24026;49.446;8.576;2024-02-15T09:50:34;162.05;;;141.80;;
38226;SDS011;24026;49.446;8.576;2024-02-15T09:52:54;165.98;;;144.27;;
38226;SDS011;24026;49.446;8.576;2024-02-15T09:55:16;167.23;;;144.65;;
38226;SDS011;24026;49.446;8.576;2024-02-15T09:57:37;163.23;;;145.05;;
38226;SDS011;24026;49.446;8.576;2024-02-15T09:59:58;174.25;;;145.98;;
38226;SDS011;24026;49.446;8.576;2024-02-15T10:02:28;164.88;;;142.60;;
38226;SDS011;24026;49.446;8.576;2024-02-15T10:04:50;169.95;;;140.98;;
38226;SDS011;24026;49.446;8.576;2024-02-15T10:07:13;169.40;;;141.38;;
38226;SDS011;24026;49.446;8.576;2024-02-15T10:09:33;175.60;;;142.60;;
38226;SDS011;24026;49.446;8.576;2024-02-15T10:11:57;157.00;;;139.73;;
38226;SDS011;24026;49.446;8.576;2024-02-15T10:14:18;161.23;;;141.82;;
38226;SDS011;24026;49.446;8.576;2024-02-15T10:16:41;160.75;;;142.95;;
38226;SDS011;24026;49.446;8.576;2024-02-15T10:19:14;167.52;;;141.60;;
38226;SDS011;24026;49.446;8.576;2024-02-15T10:21:37;161.85;;;139.90;;
38226;SDS011;24026;49.446;8.576;2024-02-15T10:24:02;168.32;;;141.82;;
38226;SDS011;24026;49.446;8.576;2024-02-15T10:26:26;156.10;;;138.88;;
38226;SDS011;24026;49.446;8.576;2024-02-15T10:28:59;162.07;;;141.82;;
38226;SDS011;24026;49.446;8.576;2024-02-15T10:31:27;156.77;;;139.27;;
38226;SDS011;24026;49.446;8.576;2024-02-15T10:33:47;160.15;;;140.98;;
38226;SDS011;24026;49.446;8.576;2024-02-15T10:36:08;157.60;;;140.90;;
38226;SDS011;24026;49.446;8.576;2024-02-15T10:38:29;157.63;;;140.65;;
38226;SDS011;24026;49.446;8.576;2024-02-15T10:40:52;159.50;;;140.63;;
38226;SDS011;24026;49.446;8.576;2024-02-15T10:43:25;158.75;;;141.50;;
38226;SDS011;24026;49.446;8.576;2024-02-15T10:45:47;159.10;;;141.63;;
38226;SDS011;24026;49.446;8.576;2024-02-15T10:48:09;165.35;;;142.45;;
38226;SDS011;24026;49.446;8.576;2024-02-15T10:50:30;163.13;;;143.27;;
38226;SDS011;24026;49.446;8.576;2024-02-15T10:52:54;162.75;;;140.90;;
38226;SDS011;24026;49.446;8.576;2024-02-15T10:55:17;177.13;;;142.87;;
38226;SDS011;24026;49.446;8.576;2024-02-15T10:58:01;160.18;;;142.82;;
38226;SDS011;24026;49.446;8.576;2024-02-15T11:00:24;173.05;;;142.63;;
38226;SDS011;24026;49.446;8.576;2024-02-15T11:02:57;161.95;;;143.80;;
38226;SDS011;24026;49.446;8.576;2024-02-15T11:05:22;160.35;;;141.75;;
38226;SDS011;24026;49.446;8.576;2024-02-15T11:07:43;166.38;;;143.95;;
38226;SDS011;24026;49.446;8.576;2024-02-15T11:10:04;177.55;;;145.48;;
38226;SDS011;24026;49.446;8.576;2024-02-15T11:12:30;166.75;;;143.65;;
38226;SDS011;24026;49.446;8.576;2024-02-15T11:14:51;168.80;;;146.05;;
38226;SDS011;24026;49.446;8.576;2024-02-15T11:17:13;176.00;;;145.15;;
38226;SDS011;24026;49.446;8.576;2024-02-15T11:19:59;165.43;;;146.88;;
38226;SDS011;24026;49.446;8.576;2024-02-15T11:22:20;165.90;;;143.40;;
38226;SDS011;24026;49.446;8.576;2024-02-15T11:24:51;160.25;;;142.63;;
38226;SDS011;24026;49.446;8.576;2024-02-15T11:27:32;174.93;;;144.27;;
38226;SDS011;24026;49.446;8.576;2024-02-15T11:30:01;172.40;;;142.50;;
38226;SDS011;24026;49.446;8.576;2024-02-15T11:32:35;159.18;;;141.77;;
38226;SDS011;24026;49.446;8.576;2024-02-15T11:35:21;166.20;;;143.90;;
38226;SDS011;24026;49.446;8.576;2024-02-15T11:42:47;163.27;;;145.48;;
38226;SDS011;24026;49.446;8.576;2024-02-15T11:45:07;161.20;;;143.63;;
38226;SDS011;24026;49.446;8.576;2024-02-15T11:47:28;165.35;;;144.90;;
38226;SDS011;24026;49.446;8.576;2024-02-15T11:49:52;156.60;;;140.00;;
38226;SDS011;24026;49.446;8.576;2024-02-15T11:52:14;158.73;;;141.88;;
38226;SDS011;24026;49.446;8.576;2024-02-15T11:54:34;157.80;;;140.93;;
38226;SDS011;24026;49.446;8.576;2024-02-15T11:56:55;162.32;;;144.50;;
38226;SDS011;24026;49.446;8.576;2024-02-15T11:59:42;161.60;;;144.25;;
38226;SDS011;24026;49.446;8.576;2024-02-15T12:02:23;157.27;;;140.35;;
38226;SDS011;24026;49.446;8.576;2024-02-15T12:05:03;156.45;;;140.38;;
38226;SDS011;24026;49.446;8.576;2024-02-15T12:07:43;154.77;;;138.45;;
38226;SDS011;24026;49.446;8.576;2024-02-15T12:10:23;157.02;;;140.68;;
38226;SDS011;24026;49.446;8.576;2024-02-15T12:13:02;153.60;;;137.85;;
38226;SDS011;24026;49.446;8.576;2024-02-15T12:15:41;157.60;;;141.20;;
38226;SDS011;24026;49.446;8.576;2024-02-15T12:18:34;156.20;;;139.82;;
38226;SDS011;24026;49.446;8.576;2024-02-15T12:21:04;155.45;;;139.27;;
38226;SDS011;24026;49.446;8.576;2024-02-15T12:23:26;156.10;;;139.60;;
38226;SDS011;24026;49.446;8.576;2024-02-15T12:25:51;160.02;;;143.20;;
38226;SDS011;24026;49.446;8.576;2024-02-15T12:28:12;156.05;;;139.70;;
38226;SDS011;24026;49.446;8.576;2024-02-15T12:30:34;152.05;;;136.65;;
38226;SDS011;24026;49.446;8.576;2024-02-15T12:33:08;156.40;;;140.30;;
38226;SDS011;24026;49.446;8.576;2024-02-15T12:35:30;151.55;;;135.55;;
38226;SDS011;24026;49.446;8.576;2024-02-15T12:40:21;157.27;;;140.55;;
38226;SDS011;24026;49.446;8.576;2024-02-15T12:42:45;155.40;;;139.90;;
38226;SDS011;24026;49.446;8.576;2024-02-15T12:45:19;156.23;;;140.40;;
38226;SDS011;24026;49.446;8.576;2024-02-15T12:47:40;157.07;;;140.32;;
38226;SDS011;24026;49.446;8.576;2024-02-15T12:50:12;157.85;;;140.73;;
38226;SDS011;24026;49.446;8.576;2024-02-15T12:52:37;166.25;;;143.30;;
38226;SDS011;24026;49.446;8.576;2024-02-15T12:55:11;163.05;;;144.90;;
38226;SDS011;24026;49.446;8.576;2024-02-15T12:57:33;157.82;;;140.90;;
38226;SDS011;24026;49.446;8.576;2024-02-15T12:59:55;155.48;;;138.90;;
38226;SDS011;24026;49.446;8.576;2024-02-15T13:02:16;154.32;;;138.20;;
38226;SDS011;24026;49.446;8.576;2024-02-15T13:04:36;158.55;;;141.27;;
38226;SDS011;24026;49.446;8.576;2024-02-15T13:06:58;156.45;;;140.13;;
38226;SDS011;24026;49.446;8.576;2024-02-15T13:09:18;158.30;;;141.60;;
38226;SDS011;24026;49.446;8.576;2024-02-15T13:11:39;159.40;;;142.63;;
38226;SDS011;24026;49.446;8.576;2024-02-15T13:13:59;162.40;;;145.57;;
38226;SDS011;24026;49.446;8.576;2024-02-15T13:16:19;160.27;;;143.43;;
38226;SDS011;24026;49.446;8.576;2024-02-15T13:18:40;158.23;;;141.65;;
38226;SDS011;24026;49.446;8.576;2024-02-15T13:21:01;162.13;;;145.15;;
38226;SDS011;24026;49.446;8.576;2024-02-15T13:23:21;166.40;;;148.82;;
38226;SDS011;24026;49.446;8.576;2024-02-15T13:25:48;162.98;;;146.27;;
38226;SDS011;24026;49.446;8.576;2024-02-15T13:28:09;159.45;;;142.18;;
38226;SDS011;24026;49.446;8.576;2024-02-15T13:30:32;165.15;;;148.60;;
38226;SDS011;24026;49.446;8.576;2024-02-15T13:32:54;173.05;;;155.10;;
38226;SDS011;24026;49.446;8.576;2024-02-15T13:35:14;169.80;;;152.30;;
38226;SDS011;24026;49.446;8.576;2024-02-15T13:37:36;170.13;;;152.73;;
38226;SDS011;24026;49.446;8.576;2024-02-15T13:39:57;180.77;;;162.40;;
38226;SDS011;24026;49.446;8.576;2024-02-15T13:42:18;173.15;;;155.23;;
38226;SDS011;24026;49.446;8.576;2024-02-15T13:44:38;189.85;;;170.57;;
38226;SDS011;24026;49.446;8.576;2024-02-15T13:46:58;177.00;;;158.93;;